sensor_id;sensor_type;location;lat;lon;timestamp;P1;durP1;ratioP1;P2;durP2;ratioP2
13071;SDS011;6602;58.934;11.166;2023-06-22T00:01:10;10.40;;;3.15;;
13071;SDS011;6602;58.934;11.166;2023-06-22T00:06:11;15.40;;;3.50;;
13071;SDS011;6602;58.934;11.166;2023-06-22T00:11:15;9.75;;;2.75;;
13071;SDS011;6602;58.934;11.166;2023-06-22T00:16:17;9.30;;;3.22;;
13071;SDS011;6602;58.934;11.166;2023-06-22T00:21:18;6.38;;;2.53;;
13071;SDS011;6602;58.934;11.166;2023-06-22T00:26:22;8.88;;;2.58;;
13071;SDS011;6602;58.934;11.166;2023-06-22T00:31:24;10.02;;;3.35;;
13071;SDS011;6602;58.934;11.166;2023-06-22T00:36:29;12.15;;;3.15;;
13071;SDS011;6602;58.934;11.166;2023-06-22T00:41:29;8.02;;;3.13;;
13071;SDS011;6602;58.934;11.166;2023-06-22T00:46:30;15.27;;;3.42;;
13071;SDS011;6602;58.934;11.166;2023-06-22T00:51:31;13.45;;;2.70;;
13071;SDS011;6602;58.934;11.166;2023-06-22T00:56:32;12.50;;;3.35;;
13071;SDS011;6602;58.934;11.166;2023-06-22T01:01:37;7.65;;;2.85;;
13071;SDS011;6602;58.934;11.166;2023-06-22T01:06:58;6.57;;;3.15;;
13071;SDS011;6602;58.934;11.166;2023-06-22T01:12:13;8.18;;;3.30;;
13071;SDS011;6602;58.934;11.166;2023-06-22T01:17:16;10.05;;;3.45;;
13071;SDS011;6602;58.934;11.166;2023-06-22T01:22:19;9.63;;;3.42;;
13071;SDS011;6602;58.934;11.166;2023-06-22T01:27:36;9.10;;;3.42;;
13071;SDS011;6602;58.934;11.166;2023-06-22T01:32:45;12.98;;;3.55;;
13071;SDS011;6602;58.934;11.166;2023-06-22T01:37:50;10.23;;;3.70;;
13071;SDS011;6602;58.934;11.166;2023-06-22T01:42:54;9.45;;;3.50;;
13071;SDS011;6602;58.934;11.166;2023-06-22T01:47:55;7.60;;;3.42;;
13071;SDS011;6602;58.934;11.166;2023-06-22T01:52:57;9.52;;;3.58;;
13071;SDS011;6602;58.934;11.166;2023-06-22T01:57:58;9.25;;;3.33;;
13071;SDS011;6602;58.934;11.166;2023-06-22T02:03:22;8.30;;;3.40;;
13071;SDS011;6602;58.934;11.166;2023-06-22T02:08:36;9.18;;;3.20;;
13071;SDS011;6602;58.934;11.166;2023-06-22T02:13:44;8.80;;;3.70;;
13071;SDS011;6602;58.934;11.166;2023-06-22T02:18:53;8.38;;;3.50;;
13071;SDS011;6602;58.934;11.166;2023-06-22T02:23:54;8.88;;;3.45;;
13071;SDS011;6602;58.934;11.166;2023-06-22T02:29:12;7.25;;;3.70;;
13071;SDS011;6602;58.934;11.166;2023-06-22T02:34:13;12.45;;;3.78;;
13071;SDS011;6602;58.934;11.166;2023-06-22T02:44:26;10.10;;;3.67;;
13071;SDS011;6602;58.934;11.166;2023-06-22T02:49:28;9.82;;;4.00;;
13071;SDS011;6602;58.934;11.166;2023-06-22T02:54:28;9.32;;;3.42;;
13071;SDS011;6602;58.934;11.166;2023-06-22T02:59:29;6.50;;;3.33;;
13071;SDS011;6602;58.934;11.166;2023-06-22T03:04:30;9.23;;;3.40;;
13071;SDS011;6602;58.934;11.166;2023-06-22T03:09:31;8.38;;;3.38;;
13071;SDS011;6602;58.934;11.166;2023-06-22T03:14:41;8.57;;;3.35;;
13071;SDS011;6602;58.934;11.166;2023-06-22T03:19:42;8.07;;;3.30;;
13071;SDS011;6602;58.934;11.166;2023-06-22T03:24:46;7.18;;;3.47;;
13071;SDS011;6602;58.934;11.166;2023-06-22T03:29:51;8.57;;;2.85;;
13071;SDS011;6602;58.934;11.166;2023-06-22T03:34:51;7.75;;;2.88;;
13071;SDS011;6602;58.934;11.166;2023-06-22T03:39:52;6.18;;;3.42;;
13071;SDS011;6602;58.934;11.166;2023-06-22T03:44:55;13.63;;;3.13;;
13071;SDS011;6602;58.934;11.166;2023-06-22T03:49:55;8.07;;;3.03;;
13071;SDS011;6602;58.934;11.166;2023-06-22T03:54:57;12.43;;;3.30;;
13071;SDS011;6602;58.934;11.166;2023-06-22T03:59:58;9.00;;;3.38;;
13071;SDS011;6602;58.934;11.166;2023-06-22T04:04:59;6.32;;;2.80;;
13071;SDS011;6602;58.934;11.166;2023-06-22T04:10:11;5.28;;;3.00;;
13071;SDS011;6602;58.934;11.166;2023-06-22T04:15:12;6.35;;;3.20;;
13071;SDS011;6602;58.934;11.166;2023-06-22T04:20:13;13.23;;;3.20;;
13071;SDS011;6602;58.934;11.166;2023-06-22T04:25:14;9.20;;;3.22;;
13071;SDS011;6602;58.934;11.166;2023-06-22T04:30:14;6.15;;;2.83;;
13071;SDS011;6602;58.934;11.166;2023-06-22T04:35:19;8.43;;;2.70;;
13071;SDS011;6602;58.934;11.166;2023-06-22T04:40:20;10.65;;;3.00;;
13071;SDS011;6602;58.934;11.166;2023-06-22T04:45:22;8.15;;;2.90;;
13071;SDS011;6602;58.934;11.166;2023-06-22T04:50:23;8.25;;;3.45;;
13071;SDS011;6602;58.934;11.166;2023-06-22T04:55:25;6.68;;;2.92;;
13071;SDS011;6602;58.934;11.166;2023-06-22T05:00:26;5.65;;;3.10;;
13071;SDS011;6602;58.934;11.166;2023-06-22T05:05:29;7.28;;;2.97;;
13071;SDS011;6602;58.934;11.166;2023-06-22T05:10:30;6.60;;;2.70;;
13071;SDS011;6602;58.934;11.166;2023-06-22T05:15:39;6.82;;;2.80;;
13071;SDS011;6602;58.934;11.166;2023-06-22T05:20:40;5.95;;;3.33;;
13071;SDS011;6602;58.934;11.166;2023-06-22T05:25:41;7.88;;;3.22;;
13071;SDS011;6602;58.934;11.166;2023-06-22T05:30:42;5.95;;;2.67;;
13071;SDS011;6602;58.934;11.166;2023-06-22T05:35:43;8.18;;;3.13;;
13071;SDS011;6602;58.934;11.166;2023-06-22T05:40:44;6.30;;;2.75;;
13071;SDS011;6602;58.934;11.166;2023-06-22T05:45:56;6.38;;;2.95;;
13071;SDS011;6602;58.934;11.166;2023-06-22T05:50:57;5.20;;;2.92;;
13071;SDS011;6602;58.934;11.166;2023-06-22T05:55:58;8.80;;;2.65;;
13071;SDS011;6602;58.934;11.166;2023-06-22T06:01:02;6.55;;;2.78;;
13071;SDS011;6602;58.934;11.166;2023-06-22T06:06:03;10.68;;;3.28;;
13071;SDS011;6602;58.934;11.166;2023-06-22T06:11:06;7.20;;;2.70;;
13071;SDS011;6602;58.934;11.166;2023-06-22T06:16:07;10.10;;;3.03;;
13071;SDS011;6602;58.934;11.166;2023-06-22T06:21:08;4.07;;;2.72;;
13071;SDS011;6602;58.934;11.166;2023-06-22T06:26:13;5.97;;;2.78;;
13071;SDS011;6602;58.934;11.166;2023-06-22T06:31:26;4.53;;;2.63;;
13071;SDS011;6602;58.934;11.166;2023-06-22T06:36:28;3.92;;;2.83;;
13071;SDS011;6602;58.934;11.166;2023-06-22T06:41:32;5.13;;;2.42;;
13071;SDS011;6602;58.934;11.166;2023-06-22T06:46:33;6.25;;;2.45;;
13071;SDS011;6602;58.934;11.166;2023-06-22T06:51:33;8.82;;;2.90;;
13071;SDS011;6602;58.934;11.166;2023-06-22T06:56:34;6.93;;;2.70;;
13071;SDS011;6602;58.934;11.166;2023-06-22T07:01:35;6.38;;;2.33;;
13071;SDS011;6602;58.934;11.166;2023-06-22T07:06:36;4.45;;;2.60;;
13071;SDS011;6602;58.934;11.166;2023-06-22T07:11:43;3.47;;;2.47;;
13071;SDS011;6602;58.934;11.166;2023-06-22T07:16:57;5.68;;;2.70;;
13071;SDS011;6602;58.934;11.166;2023-06-22T07:22:01;9.38;;;3.30;;
13071;SDS011;6602;58.934;11.166;2023-06-22T07:27:15;4.88;;;2.70;;
13071;SDS011;6602;58.934;11.166;2023-06-22T07:32:26;4.82;;;2.47;;
13071;SDS011;6602;58.934;11.166;2023-06-22T07:37:29;7.63;;;2.80;;
13071;SDS011;6602;58.934;11.166;2023-06-22T07:42:33;6.22;;;2.67;;
13071;SDS011;6602;58.934;11.166;2023-06-22T07:47:36;6.25;;;2.70;;
13071;SDS011;6602;58.934;11.166;2023-06-22T07:52:37;5.60;;;2.63;;
13071;SDS011;6602;58.934;11.166;2023-06-22T07:57:38;3.63;;;2.42;;
13071;SDS011;6602;58.934;11.166;2023-06-22T08:02:40;8.98;;;3.08;;
13071;SDS011;6602;58.934;11.166;2023-06-22T08:07:42;8.43;;;3.20;;
13071;SDS011;6602;58.934;11.166;2023-06-22T08:12:44;4.78;;;2.70;;
13071;SDS011;6602;58.934;11.166;2023-06-22T08:17:47;7.07;;;2.90;;
13071;SDS011;6602;58.934;11.166;2023-06-22T08:22:52;7.28;;;2.88;;
13071;SDS011;6602;58.934;11.166;2023-06-22T08:28:01;7.65;;;3.13;;
13071;SDS011;6602;58.934;11.166;2023-06-22T08:33:02;4.35;;;2.08;;
13071;SDS011;6602;58.934;11.166;2023-06-22T08:38:12;9.15;;;3.05;;
13071;SDS011;6602;58.934;11.166;2023-06-22T08:43:18;4.50;;;2.63;;
13071;SDS011;6602;58.934;11.166;2023-06-22T08:48:19;2.92;;;2.20;;
13071;SDS011;6602;58.934;11.166;2023-06-22T08:53:19;3.78;;;2.20;;
13071;SDS011;6602;58.934;11.166;2023-06-22T08:58:26;5.53;;;2.92;;
13071;SDS011;6602;58.934;11.166;2023-06-22T09:03:28;7.05;;;2.95;;
13071;SDS011;6602;58.934;11.166;2023-06-22T09:08:35;7.03;;;2.97;;
13071;SDS011;6602;58.934;11.166;2023-06-22T09:13:45;5.45;;;2.67;;
13071;SDS011;6602;58.934;11.166;2023-06-22T09:18:52;6.13;;;3.13;;
13071;SDS011;6602;58.934;11.166;2023-06-22T09:23:53;4.00;;;2.72;;
13071;SDS011;6602;58.934;11.166;2023-06-22T09:29:00;9.57;;;2.70;;
13071;SDS011;6602;58.934;11.166;2023-06-22T09:34:04;7.72;;;3.55;;
13071;SDS011;6602;58.934;11.166;2023-06-22T09:39:24;5.28;;;3.05;;
13071;SDS011;6602;58.934;11.166;2023-06-22T09:44:25;4.60;;;2.88;;
13071;SDS011;6602;58.934;11.166;2023-06-22T09:49:28;4.90;;;3.30;;
13071;SDS011;6602;58.934;11.166;2023-06-22T09:54:41;7.25;;;3.20;;
13071;SDS011;6602;58.934;11.166;2023-06-22T09:59:48;8.00;;;3.00;;
13071;SDS011;6602;58.934;11.166;2023-06-22T10:04:59;6.60;;;3.63;;
13071;SDS011;6602;58.934;11.166;2023-06-22T10:10:06;6.25;;;3.53;;
13071;SDS011;6602;58.934;11.166;2023-06-22T10:15:13;7.03;;;3.20;;
13071;SDS011;6602;58.934;11.166;2023-06-22T10:20:21;5.68;;;3.28;;
13071;SDS011;6602;58.934;11.166;2023-06-22T10:25:22;6.88;;;3.10;;
13071;SDS011;6602;58.934;11.166;2023-06-22T10:30:23;5.10;;;2.97;;
13071;SDS011;6602;58.934;11.166;2023-06-22T10:35:26;4.28;;;2.60;;
13071;SDS011;6602;58.934;11.166;2023-06-22T10:40:27;7.40;;;2.78;;
13071;SDS011;6602;58.934;11.166;2023-06-22T10:45:29;5.43;;;2.90;;
13071;SDS011;6602;58.934;11.166;2023-06-22T10:50:33;6.15;;;3.00;;
13071;SDS011;6602;58.934;11.166;2023-06-22T10:55:36;9.30;;;3.03;;
13071;SDS011;6602;58.934;11.166;2023-06-22T11:00:41;8.02;;;3.15;;
13071;SDS011;6602;58.934;11.166;2023-06-22T11:05:42;6.25;;;3.28;;
13071;SDS011;6602;58.934;11.166;2023-06-22T11:10:48;5.80;;;3.70;;
13071;SDS011;6602;58.934;11.166;2023-06-22T11:15:49;4.63;;;3.05;;
13071;SDS011;6602;58.934;11.166;2023-06-22T11:20:56;8.75;;;3.30;;
13071;SDS011;6602;58.934;11.166;2023-06-22T11:26:02;5.90;;;3.65;;
13071;SDS011;6602;58.934;11.166;2023-06-22T11:31:12;6.75;;;3.00;;
13071;SDS011;6602;58.934;11.166;2023-06-22T11:36:20;6.38;;;3.10;;
13071;SDS011;6602;58.934;11.166;2023-06-22T11:41:21;5.72;;;3.30;;
13071;SDS011;6602;58.934;11.166;2023-06-22T11:46:26;8.13;;;3.30;;
13071;SDS011;6602;58.934;11.166;2023-06-22T11:51:30;6.47;;;3.92;;
13071;SDS011;6602;58.934;11.166;2023-06-22T11:56:35;7.95;;;3.25;;
13071;SDS011;6602;58.934;11.166;2023-06-22T12:01:38;7.43;;;3.78;;
13071;SDS011;6602;58.934;11.166;2023-06-22T12:06:46;7.07;;;3.20;;
13071;SDS011;6602;58.934;11.166;2023-06-22T12:11:49;6.30;;;3.40;;
13071;SDS011;6602;58.934;11.166;2023-06-22T12:16:50;7.57;;;3.65;;
13071;SDS011;6602;58.934;11.166;2023-06-22T12:21:51;8.15;;;3.75;;
13071;SDS011;6602;58.934;11.166;2023-06-22T12:26:58;5.80;;;3.30;;
13071;SDS011;6602;58.934;11.166;2023-06-22T12:31:59;5.15;;;3.47;;
13071;SDS011;6602;58.934;11.166;2023-06-22T12:37:06;7.13;;;3.55;;
13071;SDS011;6602;58.934;11.166;2023-06-22T12:42:13;7.82;;;3.47;;
13071;SDS011;6602;58.934;11.166;2023-06-22T12:47:14;6.05;;;3.45;;
13071;SDS011;6602;58.934;11.166;2023-06-22T12:52:23;9.40;;;3.60;;
13071;SDS011;6602;58.934;11.166;2023-06-22T12:57:27;9.63;;;3.65;;
13071;SDS011;6602;58.934;11.166;2023-06-22T13:02:28;7.38;;;3.65;;
13071;SDS011;6602;58.934;11.166;2023-06-22T13:07:28;6.88;;;3.78;;
13071;SDS011;6602;58.934;11.166;2023-06-22T13:12:31;7.65;;;3.50;;
13071;SDS011;6602;58.934;11.166;2023-06-22T13:17:32;9.23;;;3.40;;
13071;SDS011;6602;58.934;11.166;2023-06-22T13:22:45;7.07;;;3.90;;
13071;SDS011;6602;58.934;11.166;2023-06-22T13:28:05;9.18;;;3.28;;
13071;SDS011;6602;58.934;11.166;2023-06-22T13:33:18;7.53;;;2.83;;
13071;SDS011;6602;58.934;11.166;2023-06-22T13:38:19;7.18;;;3.13;;
13071;SDS011;6602;58.934;11.166;2023-06-22T13:43:20;6.35;;;3.53;;
13071;SDS011;6602;58.934;11.166;2023-06-22T13:48:21;7.97;;;3.20;;
13071;SDS011;6602;58.934;11.166;2023-06-22T13:53:24;6.93;;;3.47;;
13071;SDS011;6602;58.934;11.166;2023-06-22T13:58:29;8.10;;;3.65;;
13071;SDS011;6602;58.934;11.166;2023-06-22T14:03:32;7.28;;;3.38;;
13071;SDS011;6602;58.934;11.166;2023-06-22T14:08:36;12.60;;;3.92;;
13071;SDS011;6602;58.934;11.166;2023-06-22T14:14:01;8.80;;;3.85;;
13071;SDS011;6602;58.934;11.166;2023-06-22T14:19:03;7.40;;;3.28;;
13071;SDS011;6602;58.934;11.166;2023-06-22T14:24:08;10.45;;;3.80;;
13071;SDS011;6602;58.934;11.166;2023-06-22T14:29:09;8.25;;;3.75;;
13071;SDS011;6602;58.934;11.166;2023-06-22T14:34:10;14.13;;;3.60;;
13071;SDS011;6602;58.934;11.166;2023-06-22T14:44:15;9.05;;;3.95;;
13071;SDS011;6602;58.934;11.166;2023-06-22T14:49:16;11.40;;;4.30;;
13071;SDS011;6602;58.934;11.166;2023-06-22T14:54:19;12.65;;;5.25;;
13071;SDS011;6602;58.934;11.166;2023-06-22T14:59:20;9.20;;;3.85;;
13071;SDS011;6602;58.934;11.166;2023-06-22T15:04:21;13.10;;;4.85;;
13071;SDS011;6602;58.934;11.166;2023-06-22T15:09:22;8.77;;;3.75;;
13071;SDS011;6602;58.934;11.166;2023-06-22T15:14:32;10.05;;;3.85;;
13071;SDS011;6602;58.934;11.166;2023-06-22T15:19:37;9.15;;;4.20;;
13071;SDS011;6602;58.934;11.166;2023-06-22T15:24:51;10.77;;;4.38;;
13071;SDS011;6602;58.934;11.166;2023-06-22T15:29:58;11.77;;;4.10;;
13071;SDS011;6602;58.934;11.166;2023-06-22T15:34:59;15.10;;;4.88;;
13071;SDS011;6602;58.934;11.166;2023-06-22T15:40:00;7.80;;;4.15;;
13071;SDS011;6602;58.934;11.166;2023-06-22T15:45:01;9.70;;;4.50;;
13071;SDS011;6602;58.934;11.166;2023-06-22T15:50:02;9.73;;;3.95;;
13071;SDS011;6602;58.934;11.166;2023-06-22T15:55:04;15.85;;;5.07;;
13071;SDS011;6602;58.934;11.166;2023-06-22T16:00:14;14.68;;;4.93;;
13071;SDS011;6602;58.934;11.166;2023-06-22T16:05:16;16.85;;;4.70;;
13071;SDS011;6602;58.934;11.166;2023-06-22T16:10:23;8.48;;;4.15;;
13071;SDS011;6602;58.934;11.166;2023-06-22T16:15:27;9.60;;;3.90;;
13071;SDS011;6602;58.934;11.166;2023-06-22T16:20:31;10.98;;;3.80;;
13071;SDS011;6602;58.934;11.166;2023-06-22T16:25:40;10.95;;;3.90;;
13071;SDS011;6602;58.934;11.166;2023-06-22T16:30:53;10.35;;;3.50;;
13071;SDS011;6602;58.934;11.166;2023-06-22T16:35:58;9.48;;;3.67;;
13071;SDS011;6602;58.934;11.166;2023-06-22T16:41:00;11.30;;;3.75;;
13071;SDS011;6602;58.934;11.166;2023-06-22T16:46:10;9.52;;;3.83;;
13071;SDS011;6602;58.934;11.166;2023-06-22T16:51:11;11.10;;;3.78;;
13071;SDS011;6602;58.934;11.166;2023-06-22T16:56:12;12.38;;;3.83;;
13071;SDS011;6602;58.934;11.166;2023-06-22T17:01:19;10.55;;;3.50;;
13071;SDS011;6602;58.934;11.166;2023-06-22T17:06:32;9.65;;;4.20;;
13071;SDS011;6602;58.934;11.166;2023-06-22T17:11:33;8.52;;;3.88;;
13071;SDS011;6602;58.934;11.166;2023-06-22T17:16:48;8.35;;;4.07;;
13071;SDS011;6602;58.934;11.166;2023-06-22T17:21:56;8.48;;;3.15;;
13071;SDS011;6602;58.934;11.166;2023-06-22T17:26:59;12.10;;;3.50;;
13071;SDS011;6602;58.934;11.166;2023-06-22T17:32:04;13.00;;;3.33;;
13071;SDS011;6602;58.934;11.166;2023-06-22T17:37:06;9.13;;;3.72;;
13071;SDS011;6602;58.934;11.166;2023-06-22T17:42:07;7.25;;;3.28;;
13071;SDS011;6602;58.934;11.166;2023-06-22T17:47:08;10.27;;;3.05;;
13071;SDS011;6602;58.934;11.166;2023-06-22T17:52:15;12.48;;;3.75;;
13071;SDS011;6602;58.934;11.166;2023-06-22T17:57:19;8.90;;;3.25;;
13071;SDS011;6602;58.934;11.166;2023-06-22T18:02:23;10.40;;;3.90;;
13071;SDS011;6602;58.934;11.166;2023-06-22T18:07:25;9.55;;;3.13;;
13071;SDS011;6602;58.934;11.166;2023-06-22T18:12:29;8.95;;;2.97;;
13071;SDS011;6602;58.934;11.166;2023-06-22T18:17:32;11.93;;;3.35;;
13071;SDS011;6602;58.934;11.166;2023-06-22T18:22:37;7.03;;;3.03;;
13071;SDS011;6602;58.934;11.166;2023-06-22T18:27:40;7.47;;;3.05;;
13071;SDS011;6602;58.934;11.166;2023-06-22T18:32:42;6.15;;;3.30;;
13071;SDS011;6602;58.934;11.166;2023-06-22T18:37:45;7.53;;;3.00;;
13071;SDS011;6602;58.934;11.166;2023-06-22T18:42:48;9.80;;;3.30;;
13071;SDS011;6602;58.934;11.166;2023-06-22T18:48:02;9.30;;;2.83;;
13071;SDS011;6602;58.934;11.166;2023-06-22T18:53:04;11.32;;;3.38;;
13071;SDS011;6602;58.934;11.166;2023-06-22T18:58:17;7.13;;;3.10;;
13071;SDS011;6602;58.934;11.166;2023-06-22T19:03:30;7.32;;;3.20;;
13071;SDS011;6602;58.934;11.166;2023-06-22T19:09:17;7.88;;;2.72;;
13071;SDS011;6602;58.934;11.166;2023-06-22T19:14:18;9.55;;;3.20;;
13071;SDS011;6602;58.934;11.166;2023-06-22T19:19:24;6.53;;;2.72;;
13071;SDS011;6602;58.934;11.166;2023-06-22T19:24:31;6.88;;;3.05;;
13071;SDS011;6602;58.934;11.166;2023-06-22T19:29:54;9.70;;;3.05;;
13071;SDS011;6602;58.934;11.166;2023-06-22T19:35:11;8.52;;;3.13;;
13071;SDS011;6602;58.934;11.166;2023-06-22T19:40:17;4.57;;;3.05;;
13071;SDS011;6602;58.934;11.166;2023-06-22T19:45:22;7.28;;;3.15;;
13071;SDS011;6602;58.934;11.166;2023-06-22T19:50:32;3.13;;;2.67;;
13071;SDS011;6602;58.934;11.166;2023-06-22T19:55:38;4.88;;;2.75;;
13071;SDS011;6602;58.934;11.166;2023-06-22T20:00:43;6.45;;;3.20;;
13071;SDS011;6602;58.934;11.166;2023-06-22T20:06:11;4.22;;;2.92;;
13071;SDS011;6602;58.934;11.166;2023-06-22T20:11:12;7.57;;;3.10;;
13071;SDS011;6602;58.934;11.166;2023-06-22T20:16:20;5.90;;;3.00;;
13071;SDS011;6602;58.934;11.166;2023-06-22T20:21:22;5.40;;;3.28;;
13071;SDS011;6602;58.934;11.166;2023-06-22T20:26:36;4.80;;;3.10;;
13071;SDS011;6602;58.934;11.166;2023-06-22T20:31:41;4.07;;;3.28;;
13071;SDS011;6602;58.934;11.166;2023-06-22T20:36:42;5.93;;;3.50;;
13071;SDS011;6602;58.934;11.166;2023-06-22T20:41:45;7.22;;;3.50;;
13071;SDS011;6602;58.934;11.166;2023-06-22T20:46:46;3.63;;;2.78;;
13071;SDS011;6602;58.934;11.166;2023-06-22T20:51:48;3.67;;;2.40;;
13071;SDS011;6602;58.934;11.166;2023-06-22T20:56:49;4.18;;;2.55;;
13071;SDS011;6602;58.934;11.166;2023-06-22T21:01:53;6.40;;;3.03;;
13071;SDS011;6602;58.934;11.166;2023-06-22T21:07:08;2.40;;;2.10;;
13071;SDS011;6602;58.934;11.166;2023-06-22T21:12:12;3.95;;;2.50;;
13071;SDS011;6602;58.934;11.166;2023-06-22T21:17:13;4.50;;;2.40;;
13071;SDS011;6602;58.934;11.166;2023-06-22T21:22:17;3.58;;;2.35;;
13071;SDS011;6602;58.934;11.166;2023-06-22T21:27:18;4.05;;;2.38;;
13071;SDS011;6602;58.934;11.166;2023-06-22T21:32:19;5.53;;;2.00;;
13071;SDS011;6602;58.934;11.166;2023-06-22T21:37:20;3.28;;;2.28;;
13071;SDS011;6602;58.934;11.166;2023-06-22T21:42:21;4.32;;;2.15;;
13071;SDS011;6602;58.934;11.166;2023-06-22T21:47:26;7.13;;;2.10;;
13071;SDS011;6602;58.934;11.166;2023-06-22T21:52:30;3.35;;;1.60;;
13071;SDS011;6602;58.934;11.166;2023-06-22T21:57:31;3.33;;;1.40;;
13071;SDS011;6602;58.934;11.166;2023-06-22T22:02:32;1.85;;;1.40;;
13071;SDS011;6602;58.934;11.166;2023-06-22T22:07:36;2.95;;;1.50;;
13071;SDS011;6602;58.934;11.166;2023-06-22T22:12:41;1.48;;;1.20;;
13071;SDS011;6602;58.934;11.166;2023-06-22T22:17:48;3.50;;;1.85;;
13071;SDS011;6602;58.934;11.166;2023-06-22T22:22:48;2.30;;;1.50;;
13071;SDS011;6602;58.934;11.166;2023-06-22T22:27:49;2.80;;;1.50;;
13071;SDS011;6602;58.934;11.166;2023-06-22T22:32:50;2.10;;;1.45;;
13071;SDS011;6602;58.934;11.166;2023-06-22T22:37:51;2.65;;;1.33;;
13071;SDS011;6602;58.934;11.166;2023-06-22T22:42:52;3.63;;;1.75;;
13071;SDS011;6602;58.934;11.166;2023-06-22T22:47:55;2.42;;;1.67;;
13071;SDS011;6602;58.934;11.166;2023-06-22T22:53:01;2.13;;;1.40;;
13071;SDS011;6602;58.934;11.166;2023-06-22T22:58:04;1.90;;;1.40;;
13071;SDS011;6602;58.934;11.166;2023-06-22T23:03:07;2.45;;;1.63;;
13071;SDS011;6602;58.934;11.166;2023-06-22T23:08:08;2.88;;;1.65;;
13071;SDS011;6602;58.934;11.166;2023-06-22T23:13:09;3.13;;;1.80;;
13071;SDS011;6602;58.934;11.166;2023-06-22T23:18:12;2.30;;;1.80;;
13071;SDS011;6602;58.934;11.166;2023-06-22T23:23:13;4.65;;;1.60;;
13071;SDS011;6602;58.934;11.166;2023-06-22T23:28:17;2.42;;;1.50;;
13071;SDS011;6602;58.934;11.166;2023-06-22T23:33:18;3.78;;;1.58;;
13071;SDS011;6602;58.934;11.166;2023-06-22T23:38:22;1.95;;;1.60;;
13071;SDS011;6602;58.934;11.166;2023-06-22T23:43:23;2.05;;;1.60;;
13071;SDS011;6602;58.934;11.166;2023-06-22T23:48:28;1.92;;;1.80;;
13071;SDS011;6602;58.934;11.166;2023-06-22T23:53:29;2.92;;;1.80;;
13071;SDS011;6602;58.934;11.166;2023-06-22T23:58:38;2.03;;;1.50;;
